createdAt,value
2022-09-12T00:02:22.354Z,100.00
2022-09-12T00:05:26.165Z,100.00
2022-09-12T00:08:28.642Z,100.00
2022-09-12T00:11:31.607Z,100.00
2022-09-12T00:14:34.149Z,100.00
2022-09-12T00:17:38.440Z,100.00
2022-09-12T00:20:46.595Z,100.00
2022-09-12T00:23:50.661Z,100.00
2022-09-12T00:26:53.298Z,100.00
2022-09-12T00:29:56.314Z,100.00
2022-09-12T00:32:58.884Z,100.00
2022-09-12T00:36:05.723Z,100.00
2022-09-12T00:39:09.216Z,100.00
2022-09-12T00:42:12.693Z,100.00
2022-09-12T00:45:26.475Z,100.00
2022-09-12T00:48:37.285Z,100.00
2022-09-12T00:52:03.237Z,100.00
2022-09-12T00:55:21.098Z,100.00
2022-09-12T00:58:28.739Z,100.00
2022-09-12T01:01:32.913Z,100.00
2022-09-12T01:04:38.691Z,100.00
2022-09-12T01:07:42.801Z,100.00
2022-09-12T01:10:46.159Z,100.00
2022-09-12T01:13:50.623Z,100.00
2022-09-12T01:16:53.235Z,100.00
2022-09-12T01:20:17.694Z,100.00
2022-09-12T01:23:45.969Z,100.00
2022-09-12T01:27:16.631Z,100.00
2022-09-12T01:30:28.117Z,100.00
2022-09-12T01:33:51.860Z,100.00
2022-09-12T01:37:19.446Z,100.00
2022-09-12T01:40:25.239Z,100.00
2022-09-12T01:43:37.684Z,100.00
2022-09-12T01:47:03.192Z,100.00
2022-09-12T01:50:18.743Z,100.00
2022-09-12T01:53:27.469Z,100.00
2022-09-12T01:56:35.615Z,100.00
2022-09-12T01:59:47.498Z,100.00
2022-09-12T02:02:57.391Z,100.00
2022-09-12T02:06:06.591Z,100.00
2022-09-12T02:09:18.592Z,100.00
2022-09-12T02:12:27.595Z,100.00
2022-09-12T02:15:38.410Z,100.00
2022-09-12T02:18:46.692Z,100.00
2022-09-12T02:21:55.903Z,100.00
2022-09-12T02:25:00.878Z,100.00
2022-09-12T02:28:27.725Z,100.00
2022-09-12T02:31:37.409Z,100.00
2022-09-12T02:35:03.320Z,100.00
2022-09-12T02:38:29.378Z,100.00
2022-09-12T02:41:32.010Z,100.00
2022-09-12T02:44:36.316Z,100.00
2022-09-12T02:47:53.888Z,100.00
2022-09-12T02:50:57.431Z,100.00
2022-09-12T02:54:00.404Z,100.00
2022-09-12T02:57:03.339Z,100.00
2022-09-12T03:00:07.372Z,100.00
2022-09-12T03:03:22.358Z,100.00
2022-09-12T03:06:40.966Z,100.00
2022-09-12T03:10:51.761Z,100.00
2022-09-12T03:13:54.099Z,100.00
2022-09-12T03:17:04.599Z,100.00
2022-09-12T03:20:20.022Z,100.00
2022-09-12T03:23:40.518Z,100.00
2022-09-12T03:26:48.169Z,100.00
2022-09-12T03:29:52.084Z,100.00
2022-09-12T03:32:55.379Z,100.00
2022-09-12T03:35:58.813Z,100.00
2022-09-12T03:39:01.258Z,100.00
2022-09-12T03:42:04.142Z,100.00
2022-09-12T03:45:07.647Z,100.00
2022-09-12T03:48:10.386Z,100.00
2022-09-12T03:51:12.931Z,100.00
2022-09-12T03:54:15.796Z,100.00
2022-09-12T03:57:18.738Z,100.00
2022-09-12T04:00:22.659Z,100.00
2022-09-12T04:03:25.503Z,100.00
2022-09-12T04:06:28.004Z,100.00
2022-09-12T04:09:30.801Z,100.00
2022-09-12T04:12:33.356Z,100.00
2022-09-12T04:15:36.032Z,100.00
2022-09-12T04:18:39.070Z,100.00
2022-09-12T04:21:41.880Z,100.00
2022-09-12T04:24:44.359Z,100.00
2022-09-12T04:27:47.107Z,100.00
2022-09-12T04:30:50.120Z,100.00
2022-09-12T04:33:57.904Z,100.00
2022-09-12T04:37:00.477Z,100.00
2022-09-12T04:40:03.440Z,100.00
2022-09-12T04:43:08.456Z,100.00
2022-09-12T04:46:16.661Z,100.00
2022-09-12T04:49:19.513Z,100.00
2022-09-12T04:52:22.362Z,100.00
2022-09-12T04:55:25.345Z,100.00
2022-09-12T04:58:28.128Z,100.00
2022-09-12T05:01:30.678Z,100.00
2022-09-12T05:04:33.632Z,100.00
2022-09-12T05:07:36.185Z,100.00
2022-09-12T05:10:38.995Z,100.00
2022-09-12T05:13:41.747Z,100.00
2022-09-12T05:16:49.055Z,100.00
2022-09-12T05:19:52.174Z,100.00
2022-09-12T05:22:55.847Z,100.00
2022-09-12T05:25:59.378Z,100.00
2022-09-12T05:29:05.231Z,100.00
2022-09-12T05:32:07.719Z,100.00
2022-09-12T05:35:11.175Z,100.00
2022-09-12T05:38:13.612Z,100.00
2022-09-12T05:41:24.255Z,100.00
2022-09-12T05:44:28.223Z,100.00
2022-09-12T05:47:31.259Z,100.00
2022-09-12T05:50:33.815Z,100.00
2022-09-12T05:53:38.270Z,100.00
2022-09-12T05:56:42.810Z,100.00
2022-09-12T05:59:45.965Z,100.00
2022-09-12T06:02:53.302Z,100.00
2022-09-12T06:05:56.146Z,100.00
2022-09-12T06:09:00.697Z,100.00
2022-09-12T06:12:03.977Z,100.00
2022-09-12T06:15:08.066Z,100.00
2022-09-12T06:18:10.987Z,100.00
2022-09-12T06:21:14.480Z,100.00
2022-09-12T06:24:18.619Z,100.00
2022-09-12T06:27:21.100Z,100.00
2022-09-12T06:30:25.542Z,98.30
2022-09-12T06:33:28.187Z,94.99
2022-09-12T06:36:45.825Z,95.43
2022-09-12T06:39:48.718Z,94.93
2022-09-12T06:42:51.432Z,90.37
2022-09-12T06:46:02.532Z,88.81
2022-09-12T06:49:05.276Z,86.65
2022-09-12T06:52:07.773Z,85.48
2022-09-12T06:55:10.711Z,84.59
2022-09-12T06:58:13.194Z,81.81
2022-09-12T07:01:23.563Z,84.30
2022-09-12T07:04:26.244Z,85.58
2022-09-12T07:07:29.900Z,85.77
2022-09-12T07:10:32.541Z,80.48
2022-09-12T07:13:35.290Z,80.30
2022-09-12T07:16:38.172Z,76.71
2022-09-12T07:19:41.501Z,76.08
2022-09-12T07:22:43.983Z,75.58
2022-09-12T07:25:57.543Z,76.54
2022-09-12T07:29:25.256Z,72.25
2022-09-12T07:32:23.827Z,70.25
2022-09-12T07:35:26.333Z,69.53
2022-09-12T07:38:29.997Z,69.78
2022-09-12T07:41:36.190Z,77.51
2022-09-12T07:44:39.034Z,73.84
2022-09-12T07:47:41.502Z,78.39
2022-09-12T07:50:45.192Z,74.89
2022-09-12T07:53:49.372Z,78.20
2022-09-12T07:56:52.383Z,73.33
2022-09-12T07:59:54.933Z,68.75
2022-09-12T08:02:57.785Z,66.78
2022-09-12T08:06:12.641Z,64.91
2022-09-12T08:09:17.425Z,64.33
2022-09-12T08:12:20.440Z,61.26
2022-09-12T08:15:22.908Z,61.20
2022-09-12T08:18:30.334Z,59.99
2022-09-12T08:21:34.122Z,60.17
2022-09-12T08:24:37.221Z,60.73
2022-09-12T08:27:39.778Z,61.74
2022-09-12T08:30:42.526Z,59.28
2022-09-12T08:33:45.302Z,55.63
2022-09-12T08:36:48.214Z,56.11
2022-09-12T08:39:52.735Z,53.65
2022-09-12T08:43:26.079Z,52.41
2022-09-12T08:46:50.440Z,50.89
2022-09-12T08:50:05.610Z,49.89
2022-09-12T08:53:21.865Z,48.37
2022-09-12T08:56:31.542Z,52.17
2022-09-12T08:59:42.161Z,58.39
2022-09-12T09:03:00.137Z,59.91
2022-09-12T09:06:23.887Z,60.25
2022-09-12T09:09:59.175Z,61.80
2022-09-12T09:13:35.929Z,62.57
2022-09-12T09:16:41.458Z,63.51
2022-09-12T09:19:50.918Z,62.82
2022-09-12T09:23:15.419Z,63.20
2022-09-12T09:26:32.697Z,63.39
2022-09-12T09:29:41.919Z,63.66
2022-09-12T09:32:50.463Z,63.33
2022-09-12T09:36:14.913Z,63.73
2022-09-12T09:39:28.620Z,61.84
2022-09-12T09:43:04.871Z,59.79
2022-09-12T09:46:08.118Z,59.47
2022-09-12T09:49:14.643Z,60.89
2022-09-12T09:52:29.496Z,58.97
2022-09-12T09:55:42.398Z,58.74
2022-09-12T09:58:45.124Z,55.17
2022-09-12T10:01:54.677Z,55.24
2022-09-12T10:04:59.793Z,58.00
2022-09-12T10:08:04.848Z,58.84
2022-09-12T10:11:20.115Z,59.46
2022-09-12T10:14:28.481Z,57.80
2022-09-12T10:17:44.457Z,58.24
2022-09-12T10:20:47.075Z,58.02
2022-09-12T10:23:59.952Z,58.02
2022-09-12T10:27:20.275Z,59.27
2022-09-12T10:30:27.982Z,57.94
2022-09-12T10:33:37.429Z,58.68
2022-09-12T10:36:40.845Z,57.26
2022-09-12T10:39:53.466Z,57.82
2022-09-12T10:43:01.059Z,57.49
2022-09-12T10:46:15.994Z,57.27
2022-09-12T10:49:25.832Z,57.56
2022-09-12T10:52:28.547Z,56.62
2022-09-12T10:55:34.983Z,56.75
2022-09-12T10:58:53.709Z,55.15
2022-09-12T11:02:30.097Z,52.89
2022-09-12T11:05:45.986Z,53.73
2022-09-12T11:09:15.863Z,54.52
2022-09-12T11:12:43.692Z,52.67
2022-09-12T11:16:07.041Z,52.76
2022-09-12T11:19:26.131Z,53.16
2022-09-12T11:22:41.031Z,52.77
2022-09-12T11:26:18.565Z,48.14
2022-09-12T11:29:52.627Z,38.77
2022-09-12T11:33:02.450Z,36.41
2022-09-12T11:36:13.708Z,34.73
2022-09-12T11:39:21.684Z,33.77
2022-09-12T11:42:35.668Z,34.92
2022-09-12T11:45:44.704Z,42.48
2022-09-12T11:48:59.461Z,44.37
2022-09-12T11:52:11.025Z,49.38
2022-09-12T11:55:19.443Z,51.05
2022-09-12T11:58:26.648Z,55.07
2022-09-12T12:01:42.941Z,55.32
2022-09-12T12:05:17.341Z,56.14
2022-09-12T12:08:25.203Z,56.66
2022-09-12T12:11:39.857Z,57.13
2022-09-12T12:14:46.757Z,56.25
2022-09-12T12:18:03.502Z,55.90
2022-09-12T12:21:42.302Z,52.55
2022-09-12T12:25:21.572Z,49.11
2022-09-12T12:28:43.128Z,49.87
2022-09-12T12:32:02.103Z,51.97
2022-09-12T12:35:42.365Z,51.65
2022-09-12T12:38:45.311Z,48.59
2022-09-12T12:41:47.920Z,47.78
2022-09-12T12:44:51.593Z,49.96
2022-09-12T12:47:58.150Z,52.21
2022-09-12T12:51:28.944Z,52.66
2022-09-12T12:54:49.607Z,48.53
2022-09-12T12:57:55.133Z,40.35
2022-09-12T13:01:09.621Z,39.79
2022-09-12T13:04:17.936Z,35.82
2022-09-12T13:07:33.663Z,42.03
2022-09-12T13:10:37.474Z,47.29
2022-09-12T13:13:58.522Z,40.59
2022-09-12T13:17:06.386Z,37.42
2022-09-12T13:20:29.643Z,43.22
2022-09-12T13:23:35.220Z,41.53
2022-09-12T13:26:43.926Z,34.86
2022-09-12T13:29:47.379Z,35.85
2022-09-12T13:32:50.167Z,32.55
2022-09-12T13:36:27.159Z,29.54
2022-09-12T13:39:38.233Z,30.14
2022-09-12T13:43:05.671Z,36.65
2022-09-12T13:46:10.153Z,40.84
2022-09-12T13:49:35.231Z,44.72
2022-09-12T13:52:38.718Z,37.79
2022-09-12T13:55:46.159Z,34.29
2022-09-12T13:58:57.673Z,31.19
2022-09-12T14:02:00.668Z,27.17
2022-09-12T14:05:24.244Z,27.01
2022-09-12T14:08:26.995Z,30.28
2022-09-12T14:11:30.989Z,31.59
2022-09-12T14:14:36.563Z,35.21
2022-09-12T14:17:43.111Z,36.85
2022-09-12T14:20:45.784Z,37.96
2022-09-12T14:23:49.291Z,37.95
2022-09-12T14:26:56.680Z,40.63
2022-09-12T14:30:09.111Z,40.82
2022-09-12T14:33:11.597Z,41.80
2022-09-12T14:36:52.834Z,41.99
2022-09-12T14:39:56.273Z,41.74
2022-09-12T14:43:01.213Z,42.18
2022-09-12T14:46:20.437Z,42.57
2022-09-12T14:49:36.608Z,42.76
2022-09-12T14:52:40.130Z,42.01
2022-09-12T14:55:46.434Z,41.48
2022-09-12T14:58:49.745Z,41.57
2022-09-12T15:02:20.665Z,42.00
2022-09-12T15:05:26.498Z,42.56
2022-09-12T15:08:30.475Z,43.19
2022-09-12T15:11:33.920Z,43.45
2022-09-12T15:14:36.899Z,43.39
2022-09-12T15:17:39.486Z,44.02
2022-09-12T15:20:46.356Z,44.47
2022-09-12T15:23:50.777Z,44.67
2022-09-12T15:26:53.733Z,44.53
2022-09-12T15:29:56.382Z,45.11
2022-09-12T15:33:00.117Z,45.17
2022-09-12T15:36:02.881Z,45.32
2022-09-12T15:39:05.639Z,45.60
2022-09-12T15:42:11.088Z,45.82
2022-09-12T15:45:21.910Z,45.59
2022-09-12T15:48:24.572Z,45.78
2022-09-12T15:51:27.768Z,45.85
2022-09-12T15:54:30.398Z,45.53
2022-09-12T15:57:33.110Z,45.64
2022-09-12T16:00:35.676Z,45.63
2022-09-12T16:03:38.496Z,45.97
2022-09-12T16:06:40.936Z,45.60
2022-09-12T16:09:43.681Z,45.94
2022-09-12T16:12:46.268Z,46.19
2022-09-12T16:15:49.170Z,46.83
2022-09-12T16:18:51.783Z,47.21
2022-09-12T16:21:54.506Z,47.82
2022-09-12T16:24:56.963Z,48.31
2022-09-12T16:28:01.523Z,48.54
2022-09-12T16:31:05.978Z,49.10
2022-09-12T16:34:08.832Z,49.37
2022-09-12T16:37:11.550Z,49.61
2022-09-12T16:40:17.828Z,49.75
2022-09-12T16:43:20.458Z,50.33
2022-09-12T16:46:30.573Z,51.24
2022-09-12T16:49:33.115Z,51.81
2022-09-12T16:52:35.859Z,51.17
2022-09-12T16:55:38.332Z,51.15
2022-09-12T16:58:42.360Z,51.66
2022-09-12T17:01:45.309Z,52.04
2022-09-12T17:04:48.841Z,52.48
2022-09-12T17:07:51.961Z,52.69
2022-09-12T17:11:06.509Z,53.16
2022-09-12T17:14:10.276Z,53.30
2022-09-12T17:17:13.099Z,53.47
2022-09-12T17:20:15.641Z,53.81
2022-09-12T17:23:18.359Z,54.17
2022-09-12T17:26:21.289Z,54.31
2022-09-12T17:29:24.030Z,54.16
2022-09-12T17:32:26.608Z,54.04
2022-09-12T17:35:29.406Z,54.48
2022-09-12T17:38:34.699Z,54.28
2022-09-12T17:41:37.754Z,54.64
2022-09-12T17:44:40.525Z,54.76
2022-09-12T17:47:43.287Z,54.18
2022-09-12T17:50:46.625Z,55.38
2022-09-12T17:53:49.360Z,55.89
2022-09-12T17:56:52.247Z,56.15
2022-09-12T17:59:55.011Z,55.28
2022-09-12T18:02:57.996Z,55.11
2022-09-12T18:06:01.022Z,55.21
2022-09-12T18:09:06.596Z,54.91
2022-09-12T18:12:09.513Z,54.88
2022-09-12T18:15:12.037Z,55.00
2022-09-12T18:18:14.752Z,55.65
2022-09-12T18:21:17.925Z,55.63
2022-09-12T18:24:21.041Z,55.54
2022-09-12T18:27:23.630Z,56.00
2022-09-12T18:30:26.808Z,56.86
2022-09-12T18:33:29.312Z,57.14
2022-09-12T18:36:32.360Z,57.58
2022-09-12T18:39:34.912Z,57.98
2022-09-12T18:42:37.724Z,58.74
2022-09-12T18:45:40.409Z,59.67
2022-09-12T18:48:44.907Z,60.23
2022-09-12T18:51:47.437Z,60.56
2022-09-12T18:54:50.292Z,60.56
2022-09-12T18:57:53.003Z,60.12
2022-09-12T19:00:56.143Z,60.60
2022-09-12T19:03:59.235Z,61.38
2022-09-12T19:07:02.223Z,60.47
2022-09-12T19:10:05.189Z,61.15
2022-09-12T19:13:07.943Z,60.99
2022-09-12T19:16:13.571Z,61.06
2022-09-12T19:19:16.917Z,61.61
2022-09-12T19:22:19.395Z,61.91
2022-09-12T19:25:22.273Z,62.29
2022-09-12T19:28:24.869Z,62.87
2022-09-12T19:31:27.769Z,63.21
2022-09-12T19:34:30.405Z,64.31
2022-09-12T19:37:33.120Z,62.71
2022-09-12T19:40:36.444Z,62.03
2022-09-12T19:43:40.065Z,62.26
2022-09-12T19:46:42.777Z,62.44
2022-09-12T19:49:45.783Z,61.29
2022-09-12T19:52:48.287Z,60.81
2022-09-12T19:55:51.070Z,60.04
2022-09-12T19:58:56.739Z,60.26
2022-09-12T20:02:00.044Z,60.57
2022-09-12T20:05:02.897Z,60.90
2022-09-12T20:08:05.412Z,61.26
2022-09-12T20:11:11.299Z,60.80
2022-09-12T20:14:14.079Z,60.60
2022-09-12T20:17:16.911Z,60.21
2022-09-12T20:20:19.381Z,58.72
2022-09-12T20:23:23.577Z,58.29
2022-09-12T20:26:26.648Z,57.84
2022-09-12T20:29:29.458Z,57.65
2022-09-12T20:32:31.961Z,58.87
2022-09-12T20:35:34.747Z,59.63
2022-09-12T20:38:37.337Z,60.57
2022-09-12T20:41:40.441Z,61.25
2022-09-12T20:44:42.899Z,63.38
2022-09-12T20:47:45.740Z,61.23
2022-09-12T20:50:48.225Z,60.38
2022-09-12T20:53:55.229Z,60.93
2022-09-12T20:56:57.724Z,60.81
2022-09-12T21:00:00.510Z,61.30
2022-09-12T21:03:03.557Z,62.94
2022-09-12T21:06:08.238Z,63.89
2022-09-12T21:09:10.880Z,64.75
2022-09-12T21:12:13.608Z,65.04
2022-09-12T21:15:16.038Z,65.69
2022-09-12T21:18:18.761Z,66.38
2022-09-12T21:21:21.425Z,67.27
2022-09-12T21:24:24.726Z,69.33
2022-09-12T21:27:27.805Z,69.09
2022-09-12T21:30:30.508Z,68.65
2022-09-12T21:33:32.982Z,69.47
2022-09-12T21:36:35.643Z,70.29
2022-09-12T21:39:38.111Z,70.39
2022-09-12T21:42:40.801Z,70.73
2022-09-12T21:45:43.159Z,71.69
2022-09-12T21:48:45.993Z,71.88
2022-09-12T21:51:48.536Z,73.67
2022-09-12T21:54:51.317Z,73.44
2022-09-12T21:57:54.798Z,74.08
2022-09-12T22:00:57.540Z,74.37
2022-09-12T22:04:00.443Z,73.14
2022-09-12T22:07:02.991Z,72.80
2022-09-12T22:10:06.463Z,73.90
2022-09-12T22:13:09.282Z,74.53
2022-09-12T22:16:12.335Z,74.73
2022-09-12T22:19:15.134Z,75.17
2022-09-12T22:22:36.358Z,77.05
2022-09-12T22:25:39.313Z,77.62
2022-09-12T22:28:43.066Z,78.05
2022-09-12T22:31:45.609Z,77.80
2022-09-12T22:34:48.407Z,78.34
2022-09-12T22:37:50.981Z,78.72
2022-09-12T22:40:53.996Z,79.07
2022-09-12T22:43:57.173Z,79.53
2022-09-12T22:47:00.110Z,80.19
2022-09-12T22:50:03.662Z,80.40
2022-09-12T22:53:06.432Z,81.09
2022-09-12T22:56:09.435Z,81.80
2022-09-12T22:59:12.177Z,82.48
2022-09-12T23:02:14.672Z,83.47
2022-09-12T23:05:17.383Z,83.47
2022-09-12T23:08:19.849Z,83.74
2022-09-12T23:11:23.270Z,84.75
2022-09-12T23:14:25.698Z,84.99
2022-09-12T23:17:28.557Z,85.73
2022-09-12T23:20:31.263Z,86.50
2022-09-12T23:23:35.358Z,87.27
2022-09-12T23:26:37.833Z,87.92
2022-09-12T23:29:40.517Z,88.68
2022-09-12T23:32:42.965Z,90.49
2022-09-12T23:35:46.463Z,91.28
2022-09-12T23:38:49.637Z,91.34
2022-09-12T23:41:52.381Z,92.77
2022-09-12T23:44:54.926Z,93.25
2022-09-12T23:47:57.665Z,93.65
2022-09-12T23:51:00.597Z,94.07
2022-09-12T23:54:03.537Z,95.20
2022-09-12T23:57:06.177Z,95.78
